createdAt,value
2023-03-25T00:00:01.825Z,1
2023-03-25T00:05:02.617Z,1
2023-03-25T00:10:02.132Z,1
2023-03-25T00:15:01.477Z,2
2023-03-25T00:20:01.904Z,2
2023-03-25T00:25:02.669Z,1
2023-03-25T00:30:02.438Z,1
2023-03-25T00:35:02.212Z,1
2023-03-25T00:40:02.020Z,1
2023-03-25T00:45:01.403Z,2
2023-03-25T00:50:01.738Z,2
2023-03-25T00:55:02.513Z,2
2023-03-25T01:00:01.905Z,2
2023-03-25T01:05:02.679Z,2
2023-03-25T01:10:02.498Z,2
2023-03-25T01:15:02.045Z,2
2023-03-25T01:20:01.487Z,2
2023-03-25T01:25:01.858Z,1
2023-03-25T01:30:02.253Z,2
2023-03-25T01:35:01.617Z,2
2023-03-25T01:40:02.029Z,2
2023-03-25T01:45:01.395Z,1
2023-03-25T01:50:01.752Z,1
2023-03-25T01:55:02.235Z,2
2023-03-25T02:00:02.024Z,2
2023-03-25T02:05:01.509Z,2
2023-03-25T02:10:01.869Z,1
2023-03-25T02:15:02.649Z,1
2023-03-25T02:20:02.210Z,2
2023-03-25T02:25:01.570Z,2
2023-03-25T02:30:02.367Z,1
2023-03-25T02:35:01.829Z,2
2023-03-25T02:40:02.374Z,3
2023-03-25T02:45:01.772Z,1
2023-03-25T02:50:02.265Z,1
2023-03-25T02:55:01.864Z,1
2023-03-25T03:00:02.271Z,1
2023-03-25T03:05:01.645Z,1
2023-03-25T03:10:02.048Z,2
2023-03-25T03:15:01.530Z,1
2023-03-25T03:20:02.006Z,2
2023-03-25T03:25:01.836Z,2
2023-03-25T03:30:02.366Z,1
2023-03-25T03:35:01.987Z,1
2023-03-25T03:40:01.403Z,1
2023-03-25T03:45:01.773Z,1
2023-03-25T03:50:02.136Z,2
2023-03-25T03:55:01.646Z,1
2023-03-25T04:00:02.031Z,2
2023-03-25T04:05:01.403Z,1
2023-03-25T04:10:01.910Z,1
2023-03-25T04:15:02.277Z,1
2023-03-25T04:20:01.756Z,1
2023-03-25T04:25:02.320Z,1
2023-03-25T04:30:01.679Z,1
2023-03-25T04:35:02.027Z,1
2023-03-25T04:40:01.421Z,1
2023-03-25T04:45:01.796Z,1
2023-03-25T04:50:02.135Z,1
2023-03-25T04:55:01.503Z,3
2023-03-25T05:00:02.321Z,1
2023-03-25T05:05:02.182Z,0
2023-03-25T05:10:01.665Z,2
2023-03-25T05:15:02.514Z,1
2023-03-25T05:20:01.952Z,1
2023-03-25T05:25:01.501Z,1
2023-03-25T05:30:01.316Z,1
2023-03-25T05:35:01.674Z,1
2023-03-25T05:40:02.093Z,2
2023-03-25T05:45:01.526Z,2
2023-03-25T05:50:01.869Z,1
2023-03-25T05:55:02.231Z,1
2023-03-25T06:00:01.617Z,1
2023-03-25T06:05:01.978Z,0
2023-03-25T06:10:01.478Z,0
2023-03-25T06:15:02.008Z,2
2023-03-25T06:20:01.442Z,0
2023-03-25T06:25:03.857Z,0
2023-03-25T06:30:01.556Z,1
2023-03-25T06:35:02.065Z,1
2023-03-25T06:40:01.420Z,2
2023-03-25T06:45:01.878Z,1
2023-03-25T06:50:02.222Z,1
2023-03-25T06:55:02.019Z,0
2023-03-25T07:00:01.495Z,0
2023-03-25T07:05:01.994Z,2
2023-03-25T07:10:01.381Z,1
2023-03-25T07:15:02.147Z,1
2023-03-25T07:20:01.740Z,2
2023-03-25T07:25:02.102Z,1
2023-03-25T07:30:01.583Z,1
2023-03-25T07:35:02.047Z,2
2023-03-25T07:40:01.437Z,0
2023-03-25T07:45:01.833Z,1
2023-03-25T07:50:02.599Z,1
2023-03-25T07:55:02.051Z,1
2023-03-25T08:00:01.836Z,1
2023-03-25T08:05:04.625Z,1
2023-03-25T08:10:01.495Z,1
2023-03-25T08:15:02.289Z,0
2023-03-25T08:20:02.150Z,0
2023-03-25T08:25:01.488Z,2
2023-03-25T08:30:01.964Z,1
2023-03-25T08:35:01.441Z,1
2023-03-25T08:40:01.939Z,1
2023-03-25T08:45:01.337Z,1
2023-03-25T08:50:01.833Z,0
2023-03-25T08:55:02.619Z,1
2023-03-25T09:00:01.988Z,1
2023-03-25T09:05:01.381Z,0
2023-03-25T09:10:01.790Z,1
2023-03-25T09:15:02.123Z,1
2023-03-25T09:20:01.643Z,1
2023-03-25T09:25:02.103Z,0
2023-03-25T09:30:01.464Z,1
2023-03-25T09:35:02.281Z,1
2023-03-25T09:40:02.098Z,2
2023-03-25T09:45:09.729Z,2
2023-03-25T09:50:02.279Z,4
2023-03-25T09:55:01.622Z,1
2023-03-25T10:00:02.148Z,1
2023-03-25T10:05:01.655Z,3
2023-03-25T10:10:02.244Z,1
2023-03-25T10:15:01.602Z,1
2023-03-25T10:20:02.018Z,3
2023-03-25T10:25:01.794Z,3
2023-03-25T10:30:02.265Z,4
2023-03-25T10:35:01.734Z,0
2023-03-25T10:40:02.141Z,1
2023-03-25T10:45:01.532Z,1
2023-03-25T10:50:01.866Z,1
2023-03-25T10:55:02.230Z,1
2023-03-25T11:00:01.599Z,0
2023-03-25T11:05:02.068Z,1
2023-03-25T11:10:01.870Z,2
2023-03-25T11:15:02.248Z,1
2023-03-25T11:20:02.121Z,3
2023-03-25T11:25:01.920Z,2
2023-03-25T11:30:02.272Z,2
2023-03-25T11:35:01.631Z,3
2023-03-25T11:40:02.044Z,3
2023-03-25T11:45:01.417Z,3
2023-03-25T11:50:01.774Z,4
2023-03-25T11:55:02.113Z,3
2023-03-25T12:00:01.581Z,4
2023-03-25T12:05:02.075Z,3
2023-03-25T12:10:01.872Z,2
2023-03-25T12:15:02.348Z,2
2023-03-25T12:20:01.915Z,3
2023-03-25T12:25:02.733Z,3
2023-03-25T12:30:02.080Z,2
2023-03-25T12:35:01.436Z,2
2023-03-25T12:40:03.913Z,3
2023-03-25T12:45:01.675Z,2
2023-03-25T12:50:02.008Z,2
2023-03-25T12:55:01.763Z,1
2023-03-25T13:00:02.239Z,2
2023-03-25T13:05:01.727Z,1
2023-03-25T13:10:02.120Z,2
2023-03-25T13:15:01.629Z,3
2023-03-25T13:20:02.080Z,2
2023-03-25T13:25:01.549Z,2
2023-03-25T13:30:02.035Z,2
2023-03-25T13:35:01.384Z,3
2023-03-25T13:40:01.891Z,2
2023-03-25T13:45:02.456Z,3
2023-03-25T13:50:02.211Z,3
2023-03-25T13:55:01.732Z,7
2023-03-25T14:00:02.528Z,2
2023-03-25T14:05:01.950Z,1
2023-03-25T14:10:01.383Z,1
2023-03-25T14:15:01.786Z,3
2023-03-25T14:20:02.205Z,1
2023-03-25T14:25:01.688Z,3
2023-03-25T14:30:02.046Z,3
2023-03-25T14:35:01.400Z,3
2023-03-25T14:40:02.211Z,3
2023-03-25T14:45:01.989Z,9
2023-03-25T14:50:01.470Z,3
2023-03-25T14:55:02.368Z,3
2023-03-25T15:00:01.909Z,9
2023-03-25T15:05:02.386Z,4
2023-03-25T15:10:01.985Z,13
2023-03-25T15:15:01.775Z,13
2023-03-25T15:20:02.328Z,9
2023-03-25T15:25:01.796Z,5
2023-03-25T15:30:02.171Z,9
2023-03-25T15:35:01.532Z,3
2023-03-25T15:40:02.323Z,3
2023-03-25T15:45:01.693Z,8
2023-03-25T15:50:02.037Z,2
2023-03-25T15:55:01.378Z,3
2023-03-25T16:00:02.166Z,4
2023-03-25T16:05:01.953Z,4
2023-03-25T16:10:01.754Z,9
2023-03-25T16:15:02.532Z,5
2023-03-25T16:20:01.994Z,1
2023-03-25T16:25:01.378Z,8
2023-03-25T16:30:02.145Z,2
2023-03-25T16:35:01.511Z,7
2023-03-25T16:40:02.312Z,9
2023-03-25T16:45:01.841Z,4
2023-03-25T16:50:02.300Z,6
2023-03-25T16:55:01.763Z,11
2023-03-25T17:00:02.597Z,4
2023-03-25T17:05:02.593Z,2
2023-03-25T17:10:01.972Z,8
2023-03-25T17:15:01.761Z,7
2023-03-25T17:20:02.389Z,2
2023-03-25T17:25:02.540Z,10
2023-03-25T17:30:01.941Z,5
2023-03-25T17:35:01.322Z,3
2023-03-25T17:40:01.884Z,6
2023-03-25T17:45:02.303Z,4
2023-03-25T17:50:01.662Z,7
2023-03-25T17:55:02.144Z,5
2023-03-25T18:00:01.928Z,14
2023-03-25T18:05:02.713Z,9
2023-03-25T18:10:02.096Z,7
2023-03-25T18:15:01.437Z,20
2023-03-25T18:20:01.920Z,71
2023-03-25T18:25:01.762Z,81
2023-03-25T18:30:02.557Z,69
2023-03-25T18:35:02.331Z,64
2023-03-25T18:40:01.934Z,58
2023-03-25T18:45:02.301Z,57
2023-03-25T18:50:01.823Z,46
2023-03-25T18:55:02.173Z,51
2023-03-25T19:00:01.552Z,39
2023-03-25T19:05:02.048Z,36
2023-03-25T19:10:01.442Z,39
2023-03-25T19:15:01.933Z,33
2023-03-25T19:20:01.530Z,29
2023-03-25T19:25:02.006Z,30
2023-03-25T19:30:01.805Z,26
2023-03-25T19:35:02.313Z,22
2023-03-25T19:40:01.817Z,18
2023-03-25T19:45:02.151Z,19
2023-03-25T19:50:01.911Z,16
2023-03-25T19:55:02.275Z,14
2023-03-25T20:00:01.763Z,14
2023-03-25T20:05:02.194Z,17
2023-03-25T20:10:13.304Z,11
2023-03-25T20:15:02.213Z,28
2023-03-25T20:20:01.750Z,13
2023-03-25T20:25:02.107Z,12
2023-03-25T20:30:01.908Z,19
2023-03-25T20:35:02.384Z,7
2023-03-25T20:40:02.196Z,7
2023-03-25T20:45:01.667Z,5
2023-03-25T20:50:02.149Z,8
2023-03-25T20:55:01.908Z,5
2023-03-25T21:00:02.402Z,4
2023-03-25T21:05:03.668Z,7
2023-03-25T21:10:02.382Z,13
2023-03-25T21:15:01.771Z,7
2023-03-25T21:20:02.621Z,4
2023-03-25T21:25:01.976Z,9
2023-03-25T21:30:01.320Z,12
2023-03-25T21:35:01.749Z,16
2023-03-25T21:40:02.303Z,13
2023-03-25T21:45:02.070Z,10
2023-03-25T21:50:01.583Z,14
2023-03-25T21:55:02.113Z,3
2023-03-25T22:00:01.456Z,3
2023-03-25T22:05:02.525Z,8
2023-03-25T22:10:02.028Z,8
2023-03-25T22:15:01.557Z,14
2023-03-25T22:20:02.442Z,7
2023-03-25T22:25:02.202Z,14
2023-03-25T22:30:01.585Z,9
2023-03-25T22:35:02.238Z,4
2023-03-25T22:40:01.625Z,4
2023-03-25T22:45:02.414Z,13
2023-03-25T22:50:01.759Z,2
2023-03-25T22:55:02.658Z,15
2023-03-25T23:00:02.119Z,1
2023-03-25T23:05:02.610Z,1
2023-03-25T23:10:02.175Z,2
2023-03-25T23:15:01.554Z,2
2023-03-25T23:20:02.067Z,1
2023-03-25T23:25:01.414Z,1
2023-03-25T23:30:01.785Z,2
2023-03-25T23:35:02.126Z,1
2023-03-25T23:40:01.641Z,1
2023-03-25T23:45:02.161Z,2
2023-03-25T23:50:02.034Z,2
2023-03-25T23:55:01.484Z,1
